Time;durP1;ratioP1;P1;durP2;ratioP2;P2;SDS_P1;SDS_P2;PMS_P1;PMS_P2;Temp;Humidity;BMP_temperature;BMP_pressure;BME280_temperature;BME280_humidity;BME280_pressure;Samples;Min_cycle;Max_cycle;Signal;HPM_P1;HPM_P2
2021/10/03 00:00:08;;;;;;;13.35;7.33;;;;;;;12.97;63.19;100343.77;1695794;83;21430;-81
2021/10/03 00:02:36;;;;;;;11.12;6.72;;;;;;;12.96;63.14;100340.77;1694452;83;21066;-80
2021/10/03 00:05:02;;;;;;;11.50;6.75;;;;;;;12.97;63.09;100335.73;1728700;83;21023;-80
2021/10/03 00:07:28;;;;;;;12.13;6.35;;;;;;;12.97;63.07;100334.41;1722882;83;21614;-80
2021/10/03 00:09:54;;;;;;;12.50;6.40;;;;;;;12.93;63.05;100329.93;1707009;81;21096;-81
2021/10/03 00:12:21;;;;;;;13.83;6.90;;;;;;;12.94;63.01;100328.92;1608335;86;21054;-82
2021/10/03 00:14:47;;;;;;;17.60;9.55;;;;;;;12.94;63.00;100325.41;1648668;85;21537;-81
2021/10/03 00:17:13;;;;;;;11.57;6.37;;;;;;;12.98;62.95;100326.70;1645425;85;21586;-83
2021/10/03 00:19:39;;;;;;;12.03;6.67;;;;;;;13.00;62.91;100327.33;1664402;85;21064;-82
2021/10/03 00:22:06;;;;;;;9.83;7.22;;;;;;;13.02;62.85;100322.61;1678930;85;21148;-81
2021/10/03 00:24:32;;;;;;;12.55;7.20;;;;;;;13.01;62.81;100327.16;1678750;85;21006;-80
2021/10/03 00:26:59;;;;;;;12.65;7.42;;;;;;;13.05;62.76;100326.78;1678955;85;21062;-80
2021/10/03 00:29:26;;;;;;;13.03;8.00;;;;;;;13.04;62.72;100324.61;1678931;85;21038;-80
2021/10/03 00:31:52;;;;;;;16.82;7.60;;;;;;;13.09;62.67;100320.03;1650449;85;21549;-80
2021/10/03 00:34:19;;;;;;;14.50;7.97;;;;;;;13.09;62.63;100316.86;1650102;87;21163;-80
2021/10/03 00:36:45;;;;;;;16.02;7.25;;;;;;;13.13;62.59;100311.45;1649939;86;21133;-80
2021/10/03 00:39:12;;;;;;;13.50;7.83;;;;;;;13.11;62.53;100315.34;1650910;86;21025;-80
2021/10/03 00:41:38;;;;;;;25.60;10.00;;;;;;;13.12;62.46;100315.16;1651345;86;21065;-80
2021/10/03 00:44:05;;;;;;;22.87;9.65;;;;;;;13.13;62.40;100311.45;1651519;86;21042;-80
2021/10/03 00:46:31;;;;;;;18.00;8.58;;;;;;;13.13;62.36;100315.47;1622082;88;21164;-81
2021/10/03 00:48:57;;;;;;;12.78;7.58;;;;;;;13.12;62.34;100307.13;1621910;88;21094;-80
2021/10/03 00:51:23;;;;;;;10.95;7.53;;;;;;;13.11;62.32;100305.47;1621974;88;21041;-79
2021/10/03 00:53:49;;;;;;;16.15;8.28;;;;;;;13.13;62.28;100314.13;1622017;88;21039;-79
2021/10/03 00:56:16;;;;;;;21.07;9.50;;;;;;;13.13;62.24;100306.59;1621750;87;21656;-79
2021/10/03 00:58:43;;;;;;;23.00;8.83;;;;;;;13.15;62.21;100306.75;1621831;87;21315;-79
2021/10/03 01:01:10;;;;;;;18.98;8.48;;;;;;;13.16;62.17;100315.09;1621875;87;21038;-80
2021/10/03 01:03:36;;;;;;;12.78;7.45;;;;;;;13.16;62.14;100301.70;1596204;90;21050;-79
2021/10/03 01:06:04;;;;;;;18.10;8.03;;;;;;;13.18;62.10;100303.69;1596704;88;21506;-79
2021/10/03 01:08:30;;;;;;;15.53;8.43;;;;;;;13.11;62.06;100302.79;1591948;90;21099;-79
2021/10/03 01:10:56;;;;;;;20.35;10.23;;;;;;;13.07;62.04;100301.47;1611148;89;21103;-79
2021/10/03 01:13:23;;;;;;;15.95;9.33;;;;;;;13.03;62.03;100301.52;1592752;89;21045;-79
2021/10/03 01:15:52;;;;;;;14.60;7.65;;;;;;;12.97;62.02;100299.60;1593498;90;21463;-79
2021/10/03 01:18:18;;;;;;;13.72;7.55;;;;;;;12.90;62.04;100297.36;1648516;87;21475;-79
2021/10/03 01:20:45;;;;;;;11.45;7.20;;;;;;;12.84;62.04;100296.77;1590839;90;21039;-79
2021/10/03 01:23:11;;;;;;;10.68;6.65;;;;;;;12.76;62.09;100291.52;1649325;86;21135;-79
2021/10/03 01:25:43;;;;;;;15.58;8.33;;;;;;;12.68;62.11;100299.13;1649486;87;21044;-79
2021/10/03 01:28:09;;;;;;;16.32;7.17;;;;;;;12.60;62.17;100302.39;1650023;85;21011;-79
2021/10/03 01:30:36;;;;;;;15.18;8.18;;;;;;;12.51;62.21;100299.00;1650109;87;21070;-79
2021/10/03 01:33:02;;;;;;;16.25;8.58;;;;;;;12.44;62.28;100302.92;1649777;87;21022;-79
2021/10/03 01:35:28;;;;;;;15.68;8.30;;;;;;;12.38;62.34;100301.00;1650002;87;21118;-79
2021/10/03 01:37:54;;;;;;;12.45;8.15;;;;;;;12.32;62.41;100301.70;1649840;87;21018;-80
2021/10/03 01:40:21;;;;;;;13.70;8.15;;;;;;;12.27;62.48;100297.44;1666544;85;21089;-80
2021/10/03 01:42:49;;;;;;;11.28;7.67;;;;;;;12.20;62.56;100295.67;1661730;86;21617;-79
2021/10/03 01:45:17;;;;;;;16.80;7.62;;;;;;;12.14;62.65;100289.20;1661526;86;21023;-81
2021/10/03 01:48:11;;;;;;;15.08;8.30;;;;;;;12.06;62.77;100281.78;1661470;86;21803;-80
2021/10/03 01:50:48;;;;;;;15.13;8.68;;;;;;;12.00;62.83;100283.32;1661388;86;21023;-80
2021/10/03 01:53:19;;;;;;;12.65;8.93;;;;;;;11.93;62.94;100283.22;1647863;85;21538;-80
2021/10/03 01:55:45;;;;;;;11.05;8.05;;;;;;;11.87;63.06;100279.11;1648632;87;21066;-80
2021/10/03 01:58:12;;;;;;;12.53;8.18;;;;;;;11.82;63.17;100272.16;1650031;87;21058;-80
2021/10/03 02:00:38;;;;;;;12.95;9.00;;;;;;;11.77;63.27;100275.36;1650027;87;21945;-80
2021/10/03 02:03:06;;;;;;;16.48;7.67;;;;;;;11.71;63.38;100261.91;1649965;87;21034;-80
2021/10/03 02:05:40;;;;;;;14.95;8.60;;;;;;;11.67;63.49;100261.41;1649905;87;21042;-80
2021/10/03 02:08:07;;;;;;;13.53;8.65;;;;;;;11.62;63.61;100257.59;1648877;87;21104;-80
2021/10/03 02:10:34;;;;;;;15.00;9.33;;;;;;;11.56;63.73;100258.31;1649100;87;21026;-80
2021/10/03 02:13:00;;;;;;;19.67;12.00;;;;;;;11.50;63.84;100264.69;1648788;85;21792;-80
2021/10/03 02:15:26;;;;;;;12.53;9.58;;;;;;;11.46;63.95;100264.75;1649065;87;21030;-81
2021/10/03 02:17:52;;;;;;;16.20;10.00;;;;;;;11.43;64.07;100269.61;1629580;85;21054;-80
2021/10/03 02:20:18;;;;;;;16.02;9.75;;;;;;;11.38;64.18;100267.47;1623340;88;21098;-80
2021/10/03 02:22:44;;;;;;;19.50;9.13;;;;;;;11.34;64.27;100264.83;1623460;88;21537;-81
2021/10/03 02:25:10;;;;;;;13.68;9.70;;;;;;;11.29;64.37;100263.21;1623531;88;21787;-80
2021/10/03 02:27:36;;;;;;;12.88;8.15;;;;;;;11.25;64.49;100253.89;1623296;88;21042;-81
2021/10/03 02:30:04;;;;;;;18.73;9.28;;;;;;;11.27;64.62;100253.20;1623462;88;21054;-80
2021/10/03 02:32:30;;;;;;;16.17;8.98;;;;;;;11.26;64.73;100257.40;1623393;88;21114;-80
2021/10/03 02:34:56;;;;;;;13.03;8.23;;;;;;;11.23;64.84;100251.05;1623474;88;21037;-79
2021/10/03 02:37:24;;;;;;;15.32;9.60;;;;;;;11.22;64.95;100246.24;1623310;88;21184;-80
2021/10/03 02:39:50;;;;;;;10.85;8.35;;;;;;;11.23;65.05;100249.22;1623367;88;21512;-79
2021/10/03 02:42:16;;;;;;;16.60;9.13;;;;;;;11.22;65.14;100248.08;1636789;85;21033;-80
2021/10/03 02:44:43;;;;;;;14.13;8.63;;;;;;;11.22;65.24;100246.24;1650083;87;21027;-80
2021/10/03 02:47:12;;;;;;;13.98;9.00;;;;;;;11.24;65.35;100249.55;1650054;87;21036;-80
2021/10/03 02:49:41;;;;;;;14.18;9.95;;;;;;;11.24;65.41;100244.21;1649757;87;21268;-80
2021/10/03 02:52:09;;;;;;;13.65;8.58;;;;;;;11.26;65.48;100250.19;1647606;87;21499;-80
2021/10/03 02:54:36;;;;;;;14.58;9.28;;;;;;;11.26;65.55;100254.20;1647689;87;21033;-80
2021/10/03 02:57:04;;;;;;;16.50;9.73;;;;;;;11.26;65.62;100247.52;1647602;87;21602;-80
2021/10/03 02:59:31;;;;;;;15.43;8.93;;;;;;;11.27;65.68;100246.52;1647466;87;21022;-80
2021/10/03 03:01:57;;;;;;;13.38;9.15;;;;;;;11.29;65.72;100237.84;1647670;86;21494;-80
2021/10/03 03:04:23;;;;;;;16.85;10.48;;;;;;;11.31;65.79;100241.16;1647482;87;20999;-80
2021/10/03 03:06:49;;;;;;;17.60;9.18;;;;;;;11.28;65.88;100224.16;1648044;85;21073;-80
2021/10/03 03:09:15;;;;;;;13.20;9.50;;;;;;;11.26;65.90;100228.83;1650061;87;21062;-80
2021/10/03 03:11:41;;;;;;;17.92;10.03;;;;;;;11.23;65.93;100232.37;1649990;87;21022;-80
2021/10/03 03:14:09;;;;;;;14.23;9.13;;;;;;;11.19;66.00;100231.09;1648360;87;21173;-80
2021/10/03 03:16:48;;;;;;;17.57;9.38;;;;;;;11.16;66.05;100226.91;1647338;85;21067;-80
2021/10/03 03:19:14;;;;;;;12.68;9.55;;;;;;;11.14;66.12;100223.60;1647431;86;21018;-80
2021/10/03 03:21:40;;;;;;;17.95;9.60;;;;;;;11.12;66.19;100222.94;1647388;86;21779;-80
2021/10/03 03:24:06;;;;;;;18.27;9.60;;;;;;;11.09;66.25;100217.95;1647392;87;21482;-80
2021/10/03 03:26:33;;;;;;;13.75;9.53;;;;;;;11.07;66.30;100218.65;1647410;87;21078;-80
2021/10/03 03:28:59;;;;;;;12.45;9.83;;;;;;;11.03;66.37;100217.34;1647267;87;21022;-80
2021/10/03 03:31:25;;;;;;;22.07;10.00;;;;;;;10.98;66.42;100221.02;1647400;85;21057;-80
2021/10/03 03:33:51;;;;;;;12.60;9.15;;;;;;;10.95;66.50;100223.55;1647309;87;21026;-80
2021/10/03 03:36:17;;;;;;;14.60;10.10;;;;;;;10.92;66.58;100227.91;1647363;87;21507;-80
2021/10/03 03:38:45;;;;;;;16.48;10.05;;;;;;;10.90;66.67;100215.27;1647228;86;21239;-79
2021/10/03 03:41:11;;;;;;;14.55;9.48;;;;;;;10.89;66.74;100220.77;1647119;87;21578;-79
2021/10/03 03:43:37;;;;;;;12.50;9.60;;;;;;;10.88;66.78;100220.43;1647288;87;21030;-79
2021/10/03 03:46:03;;;;;;;15.30;10.23;;;;;;;10.88;66.91;100216.42;1647223;87;21022;-80
2021/10/03 03:48:29;;;;;;;14.07;8.65;;;;;;;10.87;66.97;100220.13;1647304;87;21058;-80
2021/10/03 03:50:55;;;;;;;21.93;10.20;;;;;;;10.85;67.01;100214.11;1647232;87;21620;-79
2021/10/03 03:53:21;;;;;;;12.58;9.03;;;;;;;10.85;67.08;100208.78;1647111;87;21046;-80
2021/10/03 03:55:47;;;;;;;18.62;10.18;;;;;;;10.88;67.16;100219.09;1647301;87;21038;-80
2021/10/03 03:58:13;;;;;;;18.82;9.10;;;;;;;10.89;67.23;100220.77;1647292;85;21026;-80
2021/10/03 04:00:39;;;;;;;17.02;9.63;;;;;;;10.89;67.29;100210.92;1647132;87;21085;-79
2021/10/03 04:03:05;;;;;;;21.40;9.40;;;;;;;10.91;67.34;100205.40;1647386;86;21177;-80
2021/10/03 04:05:31;;;;;;;14.13;9.35;;;;;;;10.91;67.39;100213.41;1647385;87;20977;-80
2021/10/03 04:07:57;;;;;;;21.30;9.48;;;;;;;10.93;67.44;100212.73;1646594;86;21587;-80
2021/10/03 04:10:23;;;;;;;19.55;9.43;;;;;;;10.95;67.48;100218.22;1646567;87;21026;-80
2021/10/03 04:12:49;;;;;;;15.45;8.88;;;;;;;10.97;67.51;100215.38;1646229;87;21026;-80
2021/10/03 04:15:15;;;;;;;13.83;8.08;;;;;;;10.99;67.54;100213.36;1646702;87;21232;-80
2021/10/03 04:17:42;;;;;;;13.85;9.48;;;;;;;10.98;67.57;100217.86;1646976;87;21441;-80
2021/10/03 04:20:09;;;;;;;16.67;8.70;;;;;;;11.00;67.61;100204.36;1646969;87;21071;-79
2021/10/03 04:22:35;;;;;;;14.53;8.85;;;;;;;11.04;67.64;100216.34;1592373;88;21094;-80
2021/10/03 04:25:02;;;;;;;14.33;8.45;;;;;;;11.09;67.66;100210.45;1650165;86;21078;-80
2021/10/03 04:27:28;;;;;;;16.35;9.85;;;;;;;11.10;67.68;100202.28;1650278;87;21130;-80
2021/10/03 04:29:54;;;;;;;14.75;9.05;;;;;;;11.13;67.68;100193.91;1650016;87;21699;-80
2021/10/03 04:32:20;;;;;;;16.97;9.90;;;;;;;11.14;67.70;100192.91;1650313;87;21029;-80
2021/10/03 04:34:46;;;;;;;12.15;8.20;;;;;;;11.19;67.70;100194.52;1650187;87;21054;-80
2021/10/03 04:37:12;;;;;;;12.73;8.55;;;;;;;11.22;67.70;100191.52;1650027;87;21034;-80
2021/10/03 04:39:38;;;;;;;14.65;8.83;;;;;;;11.28;67.70;100196.63;1650115;87;21156;-80
2021/10/03 04:42:04;;;;;;;13.00;9.10;;;;;;;11.30;67.70;100190.09;1650191;87;21018;-79
2021/10/03 04:44:30;;;;;;;14.03;8.93;;;;;;;11.36;67.68;100194.74;1650056;87;21014;-79
2021/10/03 04:46:58;;;;;;;13.50;8.63;;;;;;;11.40;67.68;100197.35;1649879;85;21070;-79
2021/10/03 04:49:24;;;;;;;13.05;8.73;;;;;;;11.41;67.67;100189.67;1659561;85;21063;-79
2021/10/03 04:51:50;;;;;;;11.68;8.78;;;;;;;11.46;67.64;100193.98;1663947;85;21861;-80
2021/10/03 04:54:16;;;;;;;15.55;8.23;;;;;;;11.50;67.63;100193.92;1661522;86;21071;-80
2021/10/03 04:56:42;;;;;;;18.17;8.45;;;;;;;11.56;67.60;100191.55;1661519;86;21035;-80
2021/10/03 04:59:08;;;;;;;12.88;8.70;;;;;;;11.60;67.57;100185.67;1661362;86;21019;-79
2021/10/03 05:01:34;;;;;;;11.95;8.13;;;;;;;11.58;67.53;100192.19;1661350;86;21043;-80
2021/10/03 05:04:00;;;;;;;12.07;8.33;;;;;;;11.57;67.50;100187.88;1661573;86;21156;-80
2021/10/03 05:06:26;;;;;;;12.70;8.25;;;;;;;11.58;67.52;100185.51;1658785;86;21034;-80
2021/10/03 05:08:53;;;;;;;16.73;7.67;;;;;;;11.59;67.50;100187.17;1590675;90;21073;-80
2021/10/03 05:11:19;;;;;;;12.60;7.80;;;;;;;11.59;67.47;100193.85;1590972;88;21042;-80
2021/10/03 05:13:45;;;;;;;14.63;8.43;;;;;;;11.61;67.45;100198.52;1650005;87;21095;-79
2021/10/03 05:16:11;;;;;;;14.18;8.60;;;;;;;11.62;67.46;100193.48;1648928;87;21137;-81
2021/10/03 05:18:37;;;;;;;14.80;8.43;;;;;;;11.67;67.43;100187.11;1647778;87;21078;-81
2021/10/03 05:21:04;;;;;;;15.63;8.83;;;;;;;11.69;67.41;100179.23;1590432;90;21087;-81
2021/10/03 05:23:31;;;;;;;11.93;8.08;;;;;;;11.72;67.37;100180.73;1646936;87;21491;-81
2021/10/03 05:25:57;;;;;;;16.60;8.48;;;;;;;11.75;67.35;100177.72;1646934;87;21095;-81
2021/10/03 05:28:23;;;;;;;14.23;8.68;;;;;;;11.79;67.34;100182.48;1591909;90;21072;-81
2021/10/03 05:30:49;;;;;;;14.28;8.68;;;;;;;11.85;67.30;100192.97;1590498;90;21110;-81
2021/10/03 05:33:15;;;;;;;14.10;8.63;;;;;;;11.91;67.25;100192.23;1590960;89;21035;-81
2021/10/03 05:35:41;;;;;;;14.93;8.55;;;;;;;11.96;67.21;100185.84;1590541;90;21067;-81
2021/10/03 05:38:07;;;;;;;15.48;8.30;;;;;;;12.00;67.15;100185.27;1592898;88;21062;-81
2021/10/03 05:40:33;;;;;;;16.67;8.85;;;;;;;12.03;67.12;100184.89;1649850;87;21659;-81
2021/10/03 05:42:59;;;;;;;16.65;9.33;;;;;;;12.07;67.05;100193.37;1649723;86;21498;-81
2021/10/03 05:45:26;;;;;;;13.22;8.10;;;;;;;12.10;67.03;100192.20;1649991;87;21106;-81
2021/10/03 05:47:52;;;;;;;12.13;8.50;;;;;;;12.12;66.96;100194.16;1649813;87;21082;-81
2021/10/03 05:50:18;;;;;;;11.45;7.72;;;;;;;12.14;66.93;100200.98;1649757;87;21046;-81
2021/10/03 05:52:44;;;;;;;17.45;8.83;;;;;;;12.14;66.89;100204.98;1650083;87;21128;-81
2021/10/03 05:55:10;;;;;;;14.93;7.97;;;;;;;12.14;66.87;100199.64;1649835;87;21019;-81
2021/10/03 05:57:36;;;;;;;12.35;8.50;;;;;;;12.13;66.84;100198.00;1649855;87;21023;-81
2021/10/03 06:00:04;;;;;;;12.53;8.55;;;;;;;12.11;66.84;100200.52;1649917;87;21521;-81
2021/10/03 06:02:30;;;;;;;13.60;9.13;;;;;;;12.13;66.83;100206.52;1649849;85;21002;-80
2021/10/03 06:04:56;;;;;;;15.45;9.93;;;;;;;12.15;66.80;100199.97;1649998;87;21872;-81
2021/10/03 06:07:23;;;;;;;15.90;8.73;;;;;;;12.13;66.80;100200.67;1649383;87;21066;-81
2021/10/03 06:09:49;;;;;;;21.48;8.75;;;;;;;12.12;66.83;100201.68;1594726;90;21023;-81
2021/10/03 06:12:15;;;;;;;13.18;9.00;;;;;;;12.12;66.80;100197.67;1594625;90;21115;-80
2021/10/03 06:14:41;;;;;;;15.48;9.28;;;;;;;12.16;66.80;100192.78;1616777;88;21038;-80
2021/10/03 06:17:07;;;;;;;14.55;8.98;;;;;;;12.16;66.82;100191.45;1618613;88;22193;-80
2021/10/03 06:19:33;;;;;;;14.03;9.53;;;;;;;12.15;66.83;100201.30;1618428;88;21047;-80
2021/10/03 06:22:01;;;;;;;13.05;9.65;;;;;;;12.15;66.82;100202.64;1618624;88;21039;-81
2021/10/03 06:24:28;;;;;;;14.68;9.08;;;;;;;12.16;66.82;100202.14;1618581;88;21035;-81
2021/10/03 06:26:54;;;;;;;13.70;9.33;;;;;;;12.25;66.84;100204.52;1616556;86;21041;-81
2021/10/03 06:29:20;;;;;;;14.07;9.35;;;;;;;12.40;66.81;100205.35;1613022;86;21804;-81
2021/10/03 06:31:46;;;;;;;11.20;9.15;;;;;;;12.46;66.78;100208.61;1612874;89;21030;-81
2021/10/03 06:34:12;;;;;;;13.05;9.40;;;;;;;12.43;66.74;100208.98;1613041;88;21068;-82
2021/10/03 06:36:38;;;;;;;18.15;9.53;;;;;;;12.50;66.79;100209.06;1612828;88;21033;-81
2021/10/03 06:39:04;;;;;;;13.55;9.58;;;;;;;12.69;66.74;100219.70;1612263;88;21078;-81
2021/10/03 06:41:30;;;;;;;13.58;9.63;;;;;;;12.83;66.69;100216.16;1611588;89;21095;-81
2021/10/03 06:43:56;;;;;;;15.45;9.30;;;;;;;12.98;66.64;100220.42;1611806;88;21063;-81
2021/10/03 06:46:22;;;;;;;14.23;8.83;;;;;;;13.14;66.57;100214.05;1585191;90;21091;-81
2021/10/03 06:48:49;;;;;;;13.40;9.50;;;;;;;13.30;66.44;100207.63;1587474;90;21105;-82
2021/10/03 06:51:15;;;;;;;15.00;9.53;;;;;;;13.42;66.31;100206.89;1612466;87;21059;-82
2021/10/03 06:53:41;;;;;;;15.78;9.78;;;;;;;13.64;66.21;100206.87;1620250;88;21222;-81
2021/10/03 06:56:11;;;;;;;14.40;9.80;;;;;;;13.79;66.04;100204.39;1592480;88;39049;-81
2021/10/03 06:58:37;;;;;;;21.33;9.53;;;;;;;13.97;65.88;100200.70;1620492;88;21094;-81
2021/10/03 07:01:04;;;;;;;15.58;9.15;;;;;;;14.11;65.68;100206.97;1617032;88;21068;-81
2021/10/03 07:03:30;;;;;;;10.05;8.70;;;;;;;14.25;65.53;100208.70;1619545;88;21096;-81
2021/10/03 07:05:56;;;;;;;15.32;9.30;;;;;;;14.37;65.25;100213.03;1619521;88;21149;-81
2021/10/03 07:08:22;;;;;;;19.15;8.88;;;;;;;14.45;65.03;100207.00;1619618;87;21503;-80
2021/10/03 07:10:49;;;;;;;19.23;10.35;;;;;;;14.53;64.81;100203.29;1619505;88;21022;-80
2021/10/03 07:13:15;;;;;;;12.18;8.40;;;;;;;14.63;64.57;100193.55;1619196;88;21074;-81
2021/10/03 07:15:41;;;;;;;14.28;8.35;;;;;;;14.69;64.23;100191.39;1619435;88;21051;-80
2021/10/03 07:18:07;;;;;;;12.68;9.13;;;;;;;14.78;64.03;100190.17;1619500;87;21090;-81
2021/10/03 07:20:33;;;;;;;15.03;8.35;;;;;;;14.84;63.70;100187.53;1619137;88;21080;-81
2021/10/03 07:22:59;;;;;;;10.80;8.55;;;;;;;14.84;62.97;100192.06;1619378;88;21120;-80
2021/10/03 07:25:25;;;;;;;18.10;8.68;;;;;;;14.84;62.97;100192.06;1619349;88;21104;-81
2021/10/03 07:27:51;;;;;;;11.93;8.45;;;;;;;14.99;62.96;100188.67;1619510;88;21128;-81
2021/10/03 07:30:17;;;;;;;15.95;8.10;;;;;;;15.00;62.62;100186.31;1619454;88;21161;-81
2021/10/03 07:32:43;;;;;;;16.32;8.35;;;;;;;14.97;62.12;100173.30;1619440;88;21088;-81
2021/10/03 07:35:10;;;;;;;16.05;7.87;;;;;;;15.01;61.93;100169.17;1619300;88;21047;-81
2021/10/03 07:37:37;;;;;;;11.08;7.75;;;;;;;15.05;61.75;100173.11;1611743;89;21573;-81
2021/10/03 07:40:05;;;;;;;9.95;7.67;;;;;;;15.11;61.51;100174.97;1585101;90;21051;-81
2021/10/03 07:42:31;;;;;;;14.20;8.45;;;;;;;15.09;61.13;100177.05;1585191;88;22048;-81
2021/10/03 07:44:57;;;;;;;12.07;8.78;;;;;;;15.21;61.14;100175.39;1585142;90;21032;-81
2021/10/03 07:47:23;;;;;;;16.60;9.73;;;;;;;15.29;60.95;100167.66;1585452;90;21111;-81
2021/10/03 07:49:49;;;;;;;14.10;8.85;;;;;;;15.40;60.91;100171.90;1592527;89;21100;-81
2021/10/03 07:52:15;;;;;;;12.15;8.33;;;;;;;15.52;60.83;100176.14;1602325;88;21562;-81
2021/10/03 07:54:41;;;;;;;14.13;8.88;;;;;;;15.61;60.73;100178.12;1586513;89;21513;-81
2021/10/03 07:57:07;;;;;;;18.62;8.90;;;;;;;15.71;60.62;100186.59;1586326;90;21821;-81
2021/10/03 07:59:33;;;;;;;15.03;8.28;;;;;;;15.81;60.34;100180.27;1586459;89;21131;-81
2021/10/03 08:01:59;;;;;;;18.25;8.18;;;;;;;15.79;60.15;100175.63;1586554;90;21098;-81
2021/10/03 08:04:25;;;;;;;12.63;8.40;;;;;;;15.85;59.89;100181.50;1586190;90;21077;-81
2021/10/03 08:06:51;;;;;;;12.13;7.83;;;;;;;15.86;59.68;100176.45;1586384;88;21177;-81
2021/10/03 08:09:17;;;;;;;14.07;9.15;;;;;;;15.95;59.53;100181.90;1586044;90;21095;-81
2021/10/03 08:11:43;;;;;;;15.80;8.18;;;;;;;16.03;59.41;100181.68;1584898;90;21119;-82
2021/10/03 08:14:09;;;;;;;15.10;7.55;;;;;;;16.02;59.05;100181.88;1585281;90;21095;-81
2021/10/03 08:16:35;;;;;;;11.70;8.15;;;;;;;16.00;58.85;100180.77;1592370;90;21021;-82
2021/10/03 08:19:03;;;;;;;11.55;7.05;;;;;;;16.04;58.55;100190.07;1649698;86;21188;-81
2021/10/03 08:21:29;;;;;;;13.13;7.35;;;;;;;16.12;58.43;100193.86;1649773;87;21540;-81
2021/10/03 08:23:55;;;;;;;9.18;7.62;;;;;;;16.25;58.42;100181.73;1649867;86;21040;-82
2021/10/03 08:26:22;;;;;;;12.40;7.10;;;;;;;16.40;58.34;100187.66;1649817;87;21041;-81
2021/10/03 08:28:48;;;;;;;12.20;7.87;;;;;;;16.37;58.13;100189.44;1649909;86;21525;-81
2021/10/03 08:31:14;;;;;;;13.03;7.75;;;;;;;16.44;58.11;100188.06;1649759;85;21883;-82
2021/10/03 08:33:40;;;;;;;11.33;7.65;;;;;;;16.56;58.05;100193.13;1649663;87;21454;-81
2021/10/03 08:36:06;;;;;;;14.90;9.35;;;;;;;16.65;58.00;100190.49;1649768;87;21019;-81
2021/10/03 08:38:32;;;;;;;13.28;8.08;;;;;;;16.77;57.97;100186.61;1649343;85;21078;-80
2021/10/03 08:41:00;;;;;;;14.18;9.20;;;;;;;16.73;57.68;100183.52;1647437;85;21057;-81
2021/10/03 08:43:28;;;;;;;15.63;7.97;;;;;;;16.74;57.53;100185.70;1646130;87;21603;-80
2021/10/03 08:45:54;;;;;;;10.53;8.10;;;;;;;16.75;57.52;100176.56;1589914;90;21078;-80
2021/10/03 08:48:20;;;;;;;10.32;7.05;;;;;;;16.90;57.52;100175.75;1592911;90;21062;-81
2021/10/03 08:50:46;;;;;;;10.60;7.47;;;;;;;16.92;57.30;100183.92;1647783;87;21079;-81
2021/10/03 08:53:14;;;;;;;10.55;7.85;;;;;;;16.95;57.18;100175.95;1647822;87;21063;-80
2021/10/03 08:55:40;;;;;;;17.67;8.20;;;;;;;16.93;56.91;100179.36;1647870;87;21523;-81
2021/10/03 08:58:06;;;;;;;10.80;8.05;;;;;;;16.97;56.82;100175.20;1648223;86;21054;-81
2021/10/03 09:00:32;;;;;;;11.05;7.25;;;;;;;17.01;56.74;100174.23;1649137;87;21036;-81
2021/10/03 09:03:07;;;;;;;15.13;8.60;;;;;;;17.03;56.61;100174.32;1649369;87;21670;-82
2021/10/03 09:05:53;;;;;;;12.33;8.13;;;;;;;17.05;56.56;100162.82;1649267;85;21041;-82
2021/10/03 09:08:30;;;;;;;15.15;8.28;;;;;;;17.06;56.46;100161.78;1646340;87;21863;-82
2021/10/03 09:11:07;;;;;;;12.58;8.60;;;;;;;16.95;56.33;100169.21;1589881;90;21058;-82
2021/10/03 09:13:39;;;;;;;12.28;7.87;;;;;;;16.91;56.42;100167.98;1594548;89;21208;-82
2021/10/03 09:16:32;;;;;;;11.68;8.10;;;;;;;17.00;56.45;100169.37;1647535;87;21563;-82
2021/10/03 09:19:02;;;;;;;12.98;8.20;;;;;;;17.12;56.44;100173.03;1646252;85;21036;-82
2021/10/03 09:21:38;;;;;;;16.20;7.85;;;;;;;17.20;56.29;100155.78;1646387;87;21902;-82
2021/10/03 09:24:13;;;;;;;11.25;8.28;;;;;;;17.27;56.23;100158.73;1646399;87;21029;-82
2021/10/03 09:26:53;;;;;;;11.30;8.05;;;;;;;17.37;56.15;100156.88;1658767;85;21030;-82
2021/10/03 09:29:30;;;;;;;12.30;7.78;;;;;;;17.47;56.14;100158.04;1639247;87;21080;-83
2021/10/03 09:32:14;;;;;;;10.68;8.15;;;;;;;17.63;56.12;100143.70;1594174;89;21133;-83
2021/10/03 09:34:49;;;;;;;12.75;8.10;;;;;;;17.69;55.98;100157.16;1618367;88;21184;-83
2021/10/03 09:37:25;;;;;;;11.80;8.23;;;;;;;17.71;55.74;100144.78;1645951;87;21569;-80
2021/10/03 09:40:14;;;;;;;16.00;8.03;;;;;;;17.79;55.55;100153.94;1644557;87;21638;-81
2021/10/03 09:42:40;;;;;;;13.53;8.27;;;;;;;17.90;55.55;100146.47;1646203;87;21030;-80
2021/10/03 09:45:22;;;;;;;12.55;8.20;;;;;;;18.03;55.46;100142.78;1646152;86;21559;-81
2021/10/03 09:47:45;;;;;;;14.38;8.15;;;;;;;18.10;55.44;100144.36;1644176;87;21868;-80
2021/10/03 09:50:14;;;;;;;12.88;8.68;;;;;;;18.22;55.43;100147.15;1645879;87;21109;-81
2021/10/03 09:52:41;;;;;;;12.70;8.38;;;;;;;18.16;55.31;100146.16;1645926;87;21094;-81
2021/10/03 09:55:14;;;;;;;12.60;8.98;;;;;;;18.07;55.25;100144.82;1645634;87;21038;-81
2021/10/03 09:57:39;;;;;;;12.33;8.50;;;;;;;18.18;55.36;100145.42;1645874;87;21047;-81
2021/10/03 10:00:06;;;;;;;11.73;8.48;;;;;;;18.25;55.18;100136.72;1640226;87;21174;-81
2021/10/03 10:02:33;;;;;;;13.65;8.68;;;;;;;18.26;54.97;100149.15;1646250;86;21603;-81
2021/10/03 10:04:59;;;;;;;16.65;9.75;;;;;;;18.27;54.72;100140.01;1646051;87;21060;-81
2021/10/03 10:07:25;;;;;;;15.43;8.40;;;;;;;18.38;54.74;100141.95;1645873;87;21038;-81
2021/10/03 10:09:51;;;;;;;12.15;8.33;;;;;;;18.45;54.64;100137.30;1585327;90;21113;-80
2021/10/03 10:12:21;;;;;;;14.80;9.10;;;;;;;18.59;54.70;100135.79;1585708;90;21177;-81
2021/10/03 10:14:53;;;;;;;14.63;8.38;;;;;;;18.73;54.70;100131.34;1611594;89;21096;-81
2021/10/03 10:17:40;;;;;;;17.00;8.58;;;;;;;18.88;54.69;100137.67;1608088;88;21061;-81
2021/10/03 10:20:27;;;;;;;13.15;8.63;;;;;;;18.91;54.55;100142.61;1605206;89;21061;-81
2021/10/03 10:22:56;;;;;;;10.75;8.03;;;;;;;18.95;54.50;100147.86;1597125;89;21109;-84
2021/10/03 10:25:47;;;;;;;11.47;7.77;;;;;;;19.02;54.41;100145.89;1591977;88;21839;-84
2021/10/03 10:28:33;;;;;;;11.40;8.05;;;;;;;19.11;54.43;100141.78;1602703;88;21067;-86
2021/10/03 10:31:15;;;;;;;12.00;8.13;;;;;;;19.20;54.36;100135.00;1575253;89;21134;-85
2021/10/03 10:33:57;;;;;;;13.88;8.35;;;;;;;19.31;54.30;100142.84;1596145;89;21061;-84
2021/10/03 10:36:25;;;;;;;10.53;8.20;;;;;;;19.40;54.25;100136.84;1592150;89;21150;-83
2021/10/03 10:39:14;;;;;;;12.20;8.20;;;;;;;19.49;54.09;100141.42;1605165;89;21589;-85
2021/10/03 10:41:44;;;;;;;16.12;8.20;;;;;;;19.43;53.85;100153.16;1604955;89;21053;-85
2021/10/03 10:44:31;;;;;;;11.85;8.18;;;;;;;19.34;53.47;100141.84;1605213;89;21082;-86
2021/10/03 10:47:10;;;;;;;11.83;8.28;;;;;;;19.30;53.31;100138.48;1587465;88;21062;-82
2021/10/03 10:49:42;;;;;;;9.37;8.27;;;;;;;19.40;53.36;100138.20;1592880;90;21052;-83
2021/10/03 10:52:24;;;;;;;12.23;8.33;;;;;;;19.42;53.20;100134.75;1592773;89;21864;-82
2021/10/03 10:55:11;;;;;;;11.63;8.35;;;;;;;19.47;53.13;100134.05;1592256;88;21083;-82
2021/10/03 10:57:52;;;;;;;13.13;7.47;;;;;;;19.54;53.10;100132.06;1592180;90;21094;-82
2021/10/03 11:00:22;;;;;;;12.40;8.83;;;;;;;19.56;52.93;100126.43;1599703;88;21491;-81
2021/10/03 11:03:04;;;;;;;12.23;8.15;;;;;;;19.63;53.03;100129.31;1594981;88;21095;-81
2021/10/03 11:05:43;;;;;;;9.70;7.83;;;;;;;19.70;53.07;100123.78;1605974;88;21199;-81
2021/10/03 11:08:18;;;;;;;10.82;8.25;;;;;;;19.75;53.04;100127.94;1591722;90;21095;-81
2021/10/03 11:11:09;;;;;;;14.25;8.15;;;;;;;19.82;53.07;100134.05;1599779;88;21118;-81
2021/10/03 11:13:45;;;;;;;13.53;8.20;;;;;;;19.83;52.89;100123.53;1622990;88;21118;-81
2021/10/03 11:16:30;;;;;;;15.60;8.50;;;;;;;19.83;52.84;100115.41;1596673;89;21065;-81
2021/10/03 11:19:14;;;;;;;11.08;8.50;;;;;;;19.82;52.76;100118.64;1619192;88;21167;-81
2021/10/03 11:21:45;;;;;;;12.33;8.98;;;;;;;19.92;52.77;100119.39;1623947;86;21067;-81